sensor_id;sensor_type;location;lat;lon;timestamp;temperature;humidity
61004;DHT22;46889;37.310;13.582;2023-02-15T00:01:25;9.60;99.90
61004;DHT22;46889;37.310;13.582;2023-02-15T00:03:51;9.60;99.90
61004;DHT22;46889;37.310;13.582;2023-02-15T00:06:17;9.60;99.90
61004;DHT22;46889;37.310;13.582;2023-02-15T00:08:43;9.60;99.90
61004;DHT22;46889;37.310;13.582;2023-02-15T00:11:13;9.60;99.90
61004;DHT22;46889;37.310;13.582;2023-02-15T00:13:39;9.60;99.90
61004;DHT22;46889;37.310;13.582;2023-02-15T00:16:11;9.60;99.90
61004;DHT22;46889;37.310;13.582;2023-02-15T00:18:38;9.60;99.90
61004;DHT22;46889;37.310;13.582;2023-02-15T00:21:09;9.60;99.90
61004;DHT22;46889;37.310;13.582;2023-02-15T00:23:36;9.50;99.90
61004;DHT22;46889;37.310;13.582;2023-02-15T00:26:10;9.50;99.90
61004;DHT22;46889;37.310;13.582;2023-02-15T00:28:36;9.50;99.90
61004;DHT22;46889;37.310;13.582;2023-02-15T00:31:09;9.50;99.90
61004;DHT22;46889;37.310;13.582;2023-02-15T00:33:37;9.60;99.90
61004;DHT22;46889;37.310;13.582;2023-02-15T00:36:05;9.50;99.90
61004;DHT22;46889;37.310;13.582;2023-02-15T00:38:32;9.50;99.90
61004;DHT22;46889;37.310;13.582;2023-02-15T00:40:58;9.50;99.90
61004;DHT22;46889;37.310;13.582;2023-02-15T00:43:26;9.50;99.90
61004;DHT22;46889;37.310;13.582;2023-02-15T00:45:53;9.50;99.90
61004;DHT22;46889;37.310;13.582;2023-02-15T00:48:20;9.60;99.90
61004;DHT22;46889;37.310;13.582;2023-02-15T00:50:51;9.60;99.90
61004;DHT22;46889;37.310;13.582;2023-02-15T00:53:17;9.60;99.90
61004;DHT22;46889;37.310;13.582;2023-02-15T00:55:43;9.60;99.90
61004;DHT22;46889;37.310;13.582;2023-02-15T00:58:10;9.60;99.90
61004;DHT22;46889;37.310;13.582;2023-02-15T01:00:36;9.60;99.90
61004;DHT22;46889;37.310;13.582;2023-02-15T01:03:03;9.60;99.90
61004;DHT22;46889;37.310;13.582;2023-02-15T01:05:29;9.60;99.90
61004;DHT22;46889;37.310;13.582;2023-02-15T01:07:56;9.50;99.90
61004;DHT22;46889;37.310;13.582;2023-02-15T01:10:23;9.50;99.90
61004;DHT22;46889;37.310;13.582;2023-02-15T01:12:50;9.50;99.90
61004;DHT22;46889;37.310;13.582;2023-02-15T01:15:17;9.50;99.90
61004;DHT22;46889;37.310;13.582;2023-02-15T01:17:44;9.50;99.90
61004;DHT22;46889;37.310;13.582;2023-02-15T01:20:17;9.50;99.90
61004;DHT22;46889;37.310;13.582;2023-02-15T01:22:44;9.50;99.90
61004;DHT22;46889;37.310;13.582;2023-02-15T01:25:10;9.50;99.90
61004;DHT22;46889;37.310;13.582;2023-02-15T01:27:36;9.60;99.90
61004;DHT22;46889;37.310;13.582;2023-02-15T01:30:02;9.50;99.90
61004;DHT22;46889;37.310;13.582;2023-02-15T01:32:30;9.60;99.90
61004;DHT22;46889;37.310;13.582;2023-02-15T01:34:58;9.60;99.90
61004;DHT22;46889;37.310;13.582;2023-02-15T01:37:24;9.60;99.90
61004;DHT22;46889;37.310;13.582;2023-02-15T01:39:50;9.60;99.90
61004;DHT22;46889;37.310;13.582;2023-02-15T01:42:22;9.60;99.90
61004;DHT22;46889;37.310;13.582;2023-02-15T01:44:58;9.60;99.90
61004;DHT22;46889;37.310;13.582;2023-02-15T01:47:37;9.60;99.90
61004;DHT22;46889;37.310;13.582;2023-02-15T01:50:18;9.70;99.90
61004;DHT22;46889;37.310;13.582;2023-02-15T01:52:55;9.70;99.90
61004;DHT22;46889;37.310;13.582;2023-02-15T01:55:25;9.70;99.90
61004;DHT22;46889;37.310;13.582;2023-02-15T01:57:52;9.70;99.90
61004;DHT22;46889;37.310;13.582;2023-02-15T02:00:19;9.60;99.90
61004;DHT22;46889;37.310;13.582;2023-02-15T02:02:47;9.60;99.90
61004;DHT22;46889;37.310;13.582;2023-02-15T02:05:15;9.50;99.90
61004;DHT22;46889;37.310;13.582;2023-02-15T02:07:43;9.50;99.90
61004;DHT22;46889;37.310;13.582;2023-02-15T02:10:13;9.50;99.90
61004;DHT22;46889;37.310;13.582;2023-02-15T02:12:41;9.50;99.90
61004;DHT22;46889;37.310;13.582;2023-02-15T02:15:08;9.50;99.90
61004;DHT22;46889;37.310;13.582;2023-02-15T02:17:50;9.50;99.90
61004;DHT22;46889;37.310;13.582;2023-02-15T02:44:07;9.30;99.90
61004;DHT22;46889;37.310;13.582;2023-02-15T02:49:11;9.30;99.90
61004;DHT22;46889;37.310;13.582;2023-02-15T02:51:37;9.20;99.90
61004;DHT22;46889;37.310;13.582;2023-02-15T02:54:05;9.30;99.90
61004;DHT22;46889;37.310;13.582;2023-02-15T02:56:41;9.20;99.90
61004;DHT22;46889;37.310;13.582;2023-02-15T02:59:16;9.30;99.90
61004;DHT22;46889;37.310;13.582;2023-02-15T03:01:49;9.20;99.90
61004;DHT22;46889;37.310;13.582;2023-02-15T03:04:22;9.20;99.90
61004;DHT22;46889;37.310;13.582;2023-02-15T03:06:55;9.20;99.90
61004;DHT22;46889;37.310;13.582;2023-02-15T03:09:49;9.20;99.90
61004;DHT22;46889;37.310;13.582;2023-02-15T03:12:31;9.20;99.90
61004;DHT22;46889;37.310;13.582;2023-02-15T03:17:32;9.20;99.90
61004;DHT22;46889;37.310;13.582;2023-02-15T03:20:08;9.20;99.90
61004;DHT22;46889;37.310;13.582;2023-02-15T03:22:40;9.20;99.90
61004;DHT22;46889;37.310;13.582;2023-02-15T03:25:18;9.20;99.90
61004;DHT22;46889;37.310;13.582;2023-02-15T03:27:49;9.20;99.90
61004;DHT22;46889;37.310;13.582;2023-02-15T03:30:17;9.20;99.90
61004;DHT22;46889;37.310;13.582;2023-02-15T03:32:46;9.20;99.90
61004;DHT22;46889;37.310;13.582;2023-02-15T03:35:13;9.20;99.90
61004;DHT22;46889;37.310;13.582;2023-02-15T03:37:48;9.20;99.90
61004;DHT22;46889;37.310;13.582;2023-02-15T03:46:00;9.30;99.90
61004;DHT22;46889;37.310;13.582;2023-02-15T03:48:41;9.30;99.90
61004;DHT22;46889;37.310;13.582;2023-02-15T03:51:14;9.30;99.90
61004;DHT22;46889;37.310;13.582;2023-02-15T03:54:00;9.30;99.90
61004;DHT22;46889;37.310;13.582;2023-02-15T03:56:26;9.30;99.90
61004;DHT22;46889;37.310;13.582;2023-02-15T03:58:52;9.20;99.90
61004;DHT22;46889;37.310;13.582;2023-02-15T04:01:50;9.20;99.90
61004;DHT22;46889;37.310;13.582;2023-02-15T04:04:35;9.10;99.90
61004;DHT22;46889;37.310;13.582;2023-02-15T04:07:03;9.10;99.90
61004;DHT22;46889;37.310;13.582;2023-02-15T04:09:30;9.10;99.90
61004;DHT22;46889;37.310;13.582;2023-02-15T04:12:14;9.00;99.90
61004;DHT22;46889;37.310;13.582;2023-02-15T04:14:40;9.10;99.90
61004;DHT22;46889;37.310;13.582;2023-02-15T04:17:24;9.00;99.90
61004;DHT22;46889;37.310;13.582;2023-02-15T04:19:51;9.00;99.90
61004;DHT22;46889;37.310;13.582;2023-02-15T04:22:36;8.90;99.90
61004;DHT22;46889;37.310;13.582;2023-02-15T04:25:20;8.90;99.90
61004;DHT22;46889;37.310;13.582;2023-02-15T04:27:53;8.90;99.90
61004;DHT22;46889;37.310;13.582;2023-02-15T04:30:22;8.90;99.90
61004;DHT22;46889;37.310;13.582;2023-02-15T04:32:48;8.90;99.90
61004;DHT22;46889;37.310;13.582;2023-02-15T04:35:14;8.90;99.90
61004;DHT22;46889;37.310;13.582;2023-02-15T04:37:41;8.90;99.90
61004;DHT22;46889;37.310;13.582;2023-02-15T04:40:10;8.90;99.90
61004;DHT22;46889;37.310;13.582;2023-02-15T04:42:36;8.90;99.90
61004;DHT22;46889;37.310;13.582;2023-02-15T04:45:02;8.90;99.90
61004;DHT22;46889;37.310;13.582;2023-02-15T04:47:28;8.90;99.90
61004;DHT22;46889;37.310;13.582;2023-02-15T04:49:54;8.90;99.90
61004;DHT22;46889;37.310;13.582;2023-02-15T04:52:21;8.90;99.90
61004;DHT22;46889;37.310;13.582;2023-02-15T04:54:47;8.90;99.90
61004;DHT22;46889;37.310;13.582;2023-02-15T04:57:13;9.00;99.90
61004;DHT22;46889;37.310;13.582;2023-02-15T04:59:39;8.90;99.90
61004;DHT22;46889;37.310;13.582;2023-02-15T05:02:05;9.00;99.90
61004;DHT22;46889;37.310;13.582;2023-02-15T05:04:31;9.00;99.90
61004;DHT22;46889;37.310;13.582;2023-02-15T05:06:57;9.00;99.90
61004;DHT22;46889;37.310;13.582;2023-02-15T05:09:23;9.00;99.90
61004;DHT22;46889;37.310;13.582;2023-02-15T05:11:49;9.00;99.90
61004;DHT22;46889;37.310;13.582;2023-02-15T05:14:15;9.00;99.90
61004;DHT22;46889;37.310;13.582;2023-02-15T05:16:41;9.10;99.90
61004;DHT22;46889;37.310;13.582;2023-02-15T05:19:07;9.10;99.90
61004;DHT22;46889;37.310;13.582;2023-02-15T05:21:34;9.00;99.90
61004;DHT22;46889;37.310;13.582;2023-02-15T05:24:00;9.00;99.90
61004;DHT22;46889;37.310;13.582;2023-02-15T05:26:26;9.00;99.90
61004;DHT22;46889;37.310;13.582;2023-02-15T05:29:11;9.00;99.90
61004;DHT22;46889;37.310;13.582;2023-02-15T05:31:37;9.00;99.90
61004;DHT22;46889;37.310;13.582;2023-02-15T05:34:03;8.90;99.90
61004;DHT22;46889;37.310;13.582;2023-02-15T05:36:29;8.90;99.90
61004;DHT22;46889;37.310;13.582;2023-02-15T05:38:56;8.80;99.90
61004;DHT22;46889;37.310;13.582;2023-02-15T05:41:22;8.80;99.90
61004;DHT22;46889;37.310;13.582;2023-02-15T05:43:48;8.80;99.90
61004;DHT22;46889;37.310;13.582;2023-02-15T05:46:14;8.90;99.90
61004;DHT22;46889;37.310;13.582;2023-02-15T05:48:40;8.90;99.90
61004;DHT22;46889;37.310;13.582;2023-02-15T05:51:11;8.90;99.90
61004;DHT22;46889;37.310;13.582;2023-02-15T05:53:39;8.90;99.90
61004;DHT22;46889;37.310;13.582;2023-02-15T05:56:07;8.90;99.90
61004;DHT22;46889;37.310;13.582;2023-02-15T05:58:36;8.80;99.90
61004;DHT22;46889;37.310;13.582;2023-02-15T06:01:19;8.80;99.90
61004;DHT22;46889;37.310;13.582;2023-02-15T06:03:47;8.70;99.90
61004;DHT22;46889;37.310;13.582;2023-02-15T06:06:15;8.70;99.90
61004;DHT22;46889;37.310;13.582;2023-02-15T06:08:41;8.60;99.90
61004;DHT22;46889;37.310;13.582;2023-02-15T06:11:07;8.60;99.90
61004;DHT22;46889;37.310;13.582;2023-02-15T06:13:34;8.60;99.90
61004;DHT22;46889;37.310;13.582;2023-02-15T06:16:02;8.60;99.90
61004;DHT22;46889;37.310;13.582;2023-02-15T06:18:28;8.70;99.90
61004;DHT22;46889;37.310;13.582;2023-02-15T06:20:54;8.70;99.90
61004;DHT22;46889;37.310;13.582;2023-02-15T06:23:20;8.90;99.90
61004;DHT22;46889;37.310;13.582;2023-02-15T06:25:46;9.20;99.90
61004;DHT22;46889;37.310;13.582;2023-02-15T06:28:13;10.00;99.90
61004;DHT22;46889;37.310;13.582;2023-02-15T06:30:40;10.60;99.90
61004;DHT22;46889;37.310;13.582;2023-02-15T06:33:06;11.60;99.90
61004;DHT22;46889;37.310;13.582;2023-02-15T06:35:32;12.30;99.90
61004;DHT22;46889;37.310;13.582;2023-02-15T06:37:59;13.10;99.90
61004;DHT22;46889;37.310;13.582;2023-02-15T06:40:28;14.20;99.90
61004;DHT22;46889;37.310;13.582;2023-02-15T06:42:56;15.50;99.90
61004;DHT22;46889;37.310;13.582;2023-02-15T06:45:23;16.20;99.90
61004;DHT22;46889;37.310;13.582;2023-02-15T06:47:49;16.80;99.90
61004;DHT22;46889;37.310;13.582;2023-02-15T06:50:15;16.80;99.90
61004;DHT22;46889;37.310;13.582;2023-02-15T06:52:41;16.70;99.90
61004;DHT22;46889;37.310;13.582;2023-02-15T06:55:07;16.90;99.90
61004;DHT22;46889;37.310;13.582;2023-02-15T06:57:33;17.20;99.90
61004;DHT22;46889;37.310;13.582;2023-02-15T06:59:59;18.30;99.90
61004;DHT22;46889;37.310;13.582;2023-02-15T07:02:25;18.70;99.90
61004;DHT22;46889;37.310;13.582;2023-02-15T07:04:52;18.50;99.90
61004;DHT22;46889;37.310;13.582;2023-02-15T07:07:18;18.10;99.90
61004;DHT22;46889;37.310;13.582;2023-02-15T07:09:44;17.60;99.90
61004;DHT22;46889;37.310;13.582;2023-02-15T07:12:10;17.30;99.90
61004;DHT22;46889;37.310;13.582;2023-02-15T07:14:54;17.60;99.90
61004;DHT22;46889;37.310;13.582;2023-02-15T07:17:20;18.00;99.90
61004;DHT22;46889;37.310;13.582;2023-02-15T07:19:46;18.70;99.90
61004;DHT22;46889;37.310;13.582;2023-02-15T07:22:13;18.40;99.90
61004;DHT22;46889;37.310;13.582;2023-02-15T07:24:39;18.20;99.90
61004;DHT22;46889;37.310;13.582;2023-02-15T07:27:07;18.50;99.90
61004;DHT22;46889;37.310;13.582;2023-02-15T07:29:33;18.50;99.90
61004;DHT22;46889;37.310;13.582;2023-02-15T07:31:59;18.40;99.90
61004;DHT22;46889;37.310;13.582;2023-02-15T07:34:25;19.40;99.90
61004;DHT22;46889;37.310;13.582;2023-02-15T07:36:52;19.30;99.90
61004;DHT22;46889;37.310;13.582;2023-02-15T07:39:19;19.60;99.90
61004;DHT22;46889;37.310;13.582;2023-02-15T07:41:45;19.30;99.90
61004;DHT22;46889;37.310;13.582;2023-02-15T07:44:15;20.30;99.90
61004;DHT22;46889;37.310;13.582;2023-02-15T07:46:42;22.20;99.90
61004;DHT22;46889;37.310;13.582;2023-02-15T07:49:08;22.10;99.90
61004;DHT22;46889;37.310;13.582;2023-02-15T07:51:34;21.20;99.90
61004;DHT22;46889;37.310;13.582;2023-02-15T07:54:00;20.30;99.90
61004;DHT22;46889;37.310;13.582;2023-02-15T07:56:26;19.30;99.90
61004;DHT22;46889;37.310;13.582;2023-02-15T07:58:52;19.30;99.90
61004;DHT22;46889;37.310;13.582;2023-02-15T08:01:35;18.70;99.90
61004;DHT22;46889;37.310;13.582;2023-02-15T08:04:02;17.70;99.90
61004;DHT22;46889;37.310;13.582;2023-02-15T08:06:31;17.50;99.90
61004;DHT22;46889;37.310;13.582;2023-02-15T08:08:57;16.90;99.90
61004;DHT22;46889;37.310;13.582;2023-02-15T08:11:26;16.30;99.90
61004;DHT22;46889;37.310;13.582;2023-02-15T08:14:11;15.90;99.90
61004;DHT22;46889;37.310;13.582;2023-02-15T08:16:54;15.80;99.90
61004;DHT22;46889;37.310;13.582;2023-02-15T08:19:26;15.50;99.90
61004;DHT22;46889;37.310;13.582;2023-02-15T08:21:57;15.20;99.90
61004;DHT22;46889;37.310;13.582;2023-02-15T08:24:24;15.40;99.90
61004;DHT22;46889;37.310;13.582;2023-02-15T08:26:52;15.60;99.90
61004;DHT22;46889;37.310;13.582;2023-02-15T08:29:20;15.70;99.90
61004;DHT22;46889;37.310;13.582;2023-02-15T08:31:50;15.40;99.90
61004;DHT22;46889;37.310;13.582;2023-02-15T08:34:19;15.50;99.90
61004;DHT22;46889;37.310;13.582;2023-02-15T08:36:53;15.60;99.90
61004;DHT22;46889;37.310;13.582;2023-02-15T08:39:20;15.60;99.90
61004;DHT22;46889;37.310;13.582;2023-02-15T08:41:47;15.70;99.90
61004;DHT22;46889;37.310;13.582;2023-02-15T08:44:15;15.10;99.90
61004;DHT22;46889;37.310;13.582;2023-02-15T08:46:43;15.20;99.90
61004;DHT22;46889;37.310;13.582;2023-02-15T08:49:20;15.30;99.90
61004;DHT22;46889;37.310;13.582;2023-02-15T08:51:47;14.60;99.90
61004;DHT22;46889;37.310;13.582;2023-02-15T08:54:14;14.40;99.90
61004;DHT22;46889;37.310;13.582;2023-02-15T08:56:42;14.60;99.90
61004;DHT22;46889;37.310;13.582;2023-02-15T08:59:17;14.50;99.90
61004;DHT22;46889;37.310;13.582;2023-02-15T09:01:43;14.50;99.90
61004;DHT22;46889;37.310;13.582;2023-02-15T09:04:10;14.70;99.90
61004;DHT22;46889;37.310;13.582;2023-02-15T09:06:37;15.10;99.90
61004;DHT22;46889;37.310;13.582;2023-02-15T09:09:03;15.30;99.90
61004;DHT22;46889;37.310;13.582;2023-02-15T09:11:34;15.10;99.90
61004;DHT22;46889;37.310;13.582;2023-02-15T09:14:07;15.10;99.90
61004;DHT22;46889;37.310;13.582;2023-02-15T09:16:36;15.00;99.90
61004;DHT22;46889;37.310;13.582;2023-02-15T09:19:03;14.90;99.90
61004;DHT22;46889;37.310;13.582;2023-02-15T09:21:33;15.30;99.90
61004;DHT22;46889;37.310;13.582;2023-02-15T09:24:03;15.40;99.90
61004;DHT22;46889;37.310;13.582;2023-02-15T09:26:31;15.50;99.90
61004;DHT22;46889;37.310;13.582;2023-02-15T09:29:00;15.70;99.90
61004;DHT22;46889;37.310;13.582;2023-02-15T09:31:32;15.10;99.90
61004;DHT22;46889;37.310;13.582;2023-02-15T09:34:00;15.20;99.90
61004;DHT22;46889;37.310;13.582;2023-02-15T09:36:30;15.30;99.90
61004;DHT22;46889;37.310;13.582;2023-02-15T09:39:11;15.40;99.90
61004;DHT22;46889;37.310;13.582;2023-02-15T09:56:26;14.70;99.90
61004;DHT22;46889;37.310;13.582;2023-02-15T10:13:39;15.10;99.90
61004;DHT22;46889;37.310;13.582;2023-02-15T10:16:28;15.50;99.90
61004;DHT22;46889;37.310;13.582;2023-02-15T10:25:06;15.40;99.90
61004;DHT22;46889;37.310;13.582;2023-02-15T10:27:45;15.70;99.90
61004;DHT22;46889;37.310;13.582;2023-02-15T10:30:22;15.70;99.90
61004;DHT22;46889;37.310;13.582;2023-02-15T10:33:14;16.00;99.90
61004;DHT22;46889;37.310;13.582;2023-02-15T10:36:18;16.30;99.90
61004;DHT22;46889;37.310;13.582;2023-02-15T10:39:05;16.50;99.90
61004;DHT22;46889;37.310;13.582;2023-02-15T10:42:03;16.80;99.90
61004;DHT22;46889;37.310;13.582;2023-02-15T10:45:13;16.90;99.90
61004;DHT22;46889;37.310;13.582;2023-02-15T10:50:33;17.10;99.90
61004;DHT22;46889;37.310;13.582;2023-02-15T10:58:48;17.20;99.90
61004;DHT22;46889;37.310;13.582;2023-02-15T11:04:24;17.10;99.90
61004;DHT22;46889;37.310;13.582;2023-02-15T11:07:25;17.20;99.90
61004;DHT22;46889;37.310;13.582;2023-02-15T11:10:19;17.40;99.90
61004;DHT22;46889;37.310;13.582;2023-02-15T11:12:49;17.20;99.90
61004;DHT22;46889;37.310;13.582;2023-02-15T11:15:41;17.10;99.90
61004;DHT22;46889;37.310;13.582;2023-02-15T11:21:04;17.40;99.90
61004;DHT22;46889;37.310;13.582;2023-02-15T11:23:36;17.30;99.90
61004;DHT22;46889;37.310;13.582;2023-02-15T11:26:13;17.30;99.90
61004;DHT22;46889;37.310;13.582;2023-02-15T11:29:31;17.20;99.90
61004;DHT22;46889;37.310;13.582;2023-02-15T11:31:41;17.20;99.90
61004;DHT22;46889;37.310;13.582;2023-02-15T11:36:54;17.10;99.90
61004;DHT22;46889;37.310;13.582;2023-02-15T11:39:30;17.10;99.90
61004;DHT22;46889;37.310;13.582;2023-02-15T11:42:11;17.10;99.90
61004;DHT22;46889;37.310;13.582;2023-02-15T11:47:23;17.40;99.90
61004;DHT22;46889;37.310;13.582;2023-02-15T11:49:50;17.40;99.90
61004;DHT22;46889;37.310;13.582;2023-02-15T11:52:17;17.30;99.90
61004;DHT22;46889;37.310;13.582;2023-02-15T11:54:46;17.30;99.90
61004;DHT22;46889;37.310;13.582;2023-02-15T11:59:52;17.20;99.90
61004;DHT22;46889;37.310;13.582;2023-02-15T12:02:21;17.20;99.90
61004;DHT22;46889;37.310;13.582;2023-02-15T12:05:20;17.30;99.90
61004;DHT22;46889;37.310;13.582;2023-02-15T12:07:57;17.40;99.90
61004;DHT22;46889;37.310;13.582;2023-02-15T12:10:31;17.40;99.90
61004;DHT22;46889;37.310;13.582;2023-02-15T12:13:13;17.50;99.90
61004;DHT22;46889;37.310;13.582;2023-02-15T12:15:51;17.20;99.90
61004;DHT22;46889;37.310;13.582;2023-02-15T12:21:11;16.80;99.90
61004;DHT22;46889;37.310;13.582;2023-02-15T12:24:20;17.00;99.90
61004;DHT22;46889;37.310;13.582;2023-02-15T12:26:44;17.00;99.90
61004;DHT22;46889;37.310;13.582;2023-02-15T12:29:24;17.10;99.90
61004;DHT22;46889;37.310;13.582;2023-02-15T12:31:52;17.20;99.90
61004;DHT22;46889;37.310;13.582;2023-02-15T12:34:33;17.30;99.90
61004;DHT22;46889;37.310;13.582;2023-02-15T12:37:07;17.40;99.90
61004;DHT22;46889;37.310;13.582;2023-02-15T12:39:34;17.50;99.90
61004;DHT22;46889;37.310;13.582;2023-02-15T12:42:08;17.70;99.90
61004;DHT22;46889;37.310;13.582;2023-02-15T12:44:56;17.20;99.90
61004;DHT22;46889;37.310;13.582;2023-02-15T12:47:23;16.90;99.90
61004;DHT22;46889;37.310;13.582;2023-02-15T12:52:47;16.90;99.90
61004;DHT22;46889;37.310;13.582;2023-02-15T12:55:24;16.70;99.90
61004;DHT22;46889;37.310;13.582;2023-02-15T12:58:18;16.90;99.90
61004;DHT22;46889;37.310;13.582;2023-02-15T13:00:45;17.00;99.90
61004;DHT22;46889;37.310;13.582;2023-02-15T13:03:21;17.30;99.90
61004;DHT22;46889;37.310;13.582;2023-02-15T13:05:54;17.20;99.90
61004;DHT22;46889;37.310;13.582;2023-02-15T13:08:30;17.10;99.90
61004;DHT22;46889;37.310;13.582;2023-02-15T13:11:11;17.20;99.90
61004;DHT22;46889;37.310;13.582;2023-02-15T13:13:58;17.40;99.90
61004;DHT22;46889;37.310;13.582;2023-02-15T13:16:32;17.50;99.90
61004;DHT22;46889;37.310;13.582;2023-02-15T13:19:04;17.30;99.90
61004;DHT22;46889;37.310;13.582;2023-02-15T13:21:40;17.20;99.90
61004;DHT22;46889;37.310;13.582;2023-02-15T13:24:27;17.40;99.90
61004;DHT22;46889;37.310;13.582;2023-02-15T13:27:19;17.60;99.90
61004;DHT22;46889;37.310;13.582;2023-02-15T13:29:55;17.70;99.90
61004;DHT22;46889;37.310;13.582;2023-02-15T13:32:29;17.50;99.90
61004;DHT22;46889;37.310;13.582;2023-02-15T13:34:58;17.40;99.90
61004;DHT22;46889;37.310;13.582;2023-02-15T13:46:08;17.00;99.90
61004;DHT22;46889;37.310;13.582;2023-02-15T14:11:42;16.80;99.90
61004;DHT22;46889;37.310;13.582;2023-02-15T14:14:25;16.80;99.90
61004;DHT22;46889;37.310;13.582;2023-02-15T14:19:54;16.60;99.90
61004;DHT22;46889;37.310;13.582;2023-02-15T14:22:25;16.70;99.90
61004;DHT22;46889;37.310;13.582;2023-02-15T14:27:56;16.80;99.90
61004;DHT22;46889;37.310;13.582;2023-02-15T14:30:29;16.60;99.90
61004;DHT22;46889;37.310;13.582;2023-02-15T14:33:01;16.70;99.90
61004;DHT22;46889;37.310;13.582;2023-02-15T14:35:30;16.80;99.90
61004;DHT22;46889;37.310;13.582;2023-02-15T14:43:47;16.50;99.90
61004;DHT22;46889;37.310;13.582;2023-02-15T14:49:05;16.20;99.90
61004;DHT22;46889;37.310;13.582;2023-02-15T14:59:40;16.50;99.90
61004;DHT22;46889;37.310;13.582;2023-02-15T15:09:58;16.30;99.90
61004;DHT22;46889;37.310;13.582;2023-02-15T15:14:52;16.30;99.90
61004;DHT22;46889;37.310;13.582;2023-02-15T15:22:51;16.20;99.90
61004;DHT22;46889;37.310;13.582;2023-02-15T15:25:42;15.90;99.90
61004;DHT22;46889;37.310;13.582;2023-02-15T15:31:23;15.90;99.90
61004;DHT22;46889;37.310;13.582;2023-02-15T15:34:19;15.80;99.90
61004;DHT22;46889;37.310;13.582;2023-02-15T15:39:59;15.90;99.90
61004;DHT22;46889;37.310;13.582;2023-02-15T15:45:34;15.80;99.90
61004;DHT22;46889;37.310;13.582;2023-02-15T15:50:53;15.50;99.90
61004;DHT22;46889;37.310;13.582;2023-02-15T15:53:24;15.50;99.90
61004;DHT22;46889;37.310;13.582;2023-02-15T15:55:54;15.30;99.90
61004;DHT22;46889;37.310;13.582;2023-02-15T15:58:22;15.20;99.90
61004;DHT22;46889;37.310;13.582;2023-02-15T16:00:56;15.20;99.90
61004;DHT22;46889;37.310;13.582;2023-02-15T16:03:27;15.20;99.90
61004;DHT22;46889;37.310;13.582;2023-02-15T16:05:55;15.10;99.90
61004;DHT22;46889;37.310;13.582;2023-02-15T16:08:36;15.10;99.90
61004;DHT22;46889;37.310;13.582;2023-02-15T16:11:21;15.10;99.90
61004;DHT22;46889;37.310;13.582;2023-02-15T16:13:48;15.10;99.90
61004;DHT22;46889;37.310;13.582;2023-02-15T16:16:26;15.10;99.90
61004;DHT22;46889;37.310;13.582;2023-02-15T16:18:55;15.10;99.90
61004;DHT22;46889;37.310;13.582;2023-02-15T16:21:29;15.10;99.90
61004;DHT22;46889;37.310;13.582;2023-02-15T16:24:18;15.20;99.90
61004;DHT22;46889;37.310;13.582;2023-02-15T16:27:11;15.20;99.90
61004;DHT22;46889;37.310;13.582;2023-02-15T16:29:39;15.10;99.90
61004;DHT22;46889;37.310;13.582;2023-02-15T16:32:22;15.00;99.90
61004;DHT22;46889;37.310;13.582;2023-02-15T16:34:57;14.80;99.90
61004;DHT22;46889;37.310;13.582;2023-02-15T16:37:28;14.70;99.90
61004;DHT22;46889;37.310;13.582;2023-02-15T16:39:57;14.60;99.90
61004;DHT22;46889;37.310;13.582;2023-02-15T16:42:25;14.40;99.90
61004;DHT22;46889;37.310;13.582;2023-02-15T16:47:26;14.10;99.90
61004;DHT22;46889;37.310;13.582;2023-02-15T16:49:55;14.00;99.90
61004;DHT22;46889;37.310;13.582;2023-02-15T16:52:24;13.90;99.90
61004;DHT22;46889;37.310;13.582;2023-02-15T16:54:58;13.80;99.90
61004;DHT22;46889;37.310;13.582;2023-02-15T16:57:30;13.70;99.90
61004;DHT22;46889;37.310;13.582;2023-02-15T17:00:04;13.70;99.90
61004;DHT22;46889;37.310;13.582;2023-02-15T17:02:33;13.50;99.90
61004;DHT22;46889;37.310;13.582;2023-02-15T17:05:13;13.50;99.90
61004;DHT22;46889;37.310;13.582;2023-02-15T17:10:38;13.40;99.90
61004;DHT22;46889;37.310;13.582;2023-02-15T17:13:15;13.40;99.90
61004;DHT22;46889;37.310;13.582;2023-02-15T17:21:00;13.50;99.90
61004;DHT22;46889;37.310;13.582;2023-02-15T17:23:33;13.50;99.90
61004;DHT22;46889;37.310;13.582;2023-02-15T17:26:11;13.40;99.90
61004;DHT22;46889;37.310;13.582;2023-02-15T17:28:49;13.40;99.90
61004;DHT22;46889;37.310;13.582;2023-02-15T17:31:18;13.40;99.90
61004;DHT22;46889;37.310;13.582;2023-02-15T17:33:44;13.30;99.90
61004;DHT22;46889;37.310;13.582;2023-02-15T17:36:18;13.30;99.90
61004;DHT22;46889;37.310;13.582;2023-02-15T17:39:20;13.20;99.90
61004;DHT22;46889;37.310;13.582;2023-02-15T17:41:51;13.20;99.90
61004;DHT22;46889;37.310;13.582;2023-02-15T17:44:18;13.10;99.90
61004;DHT22;46889;37.310;13.582;2023-02-15T17:46:47;13.00;99.90
61004;DHT22;46889;37.310;13.582;2023-02-15T17:49:24;12.90;99.90
61004;DHT22;46889;37.310;13.582;2023-02-15T17:51:51;12.90;99.90
61004;DHT22;46889;37.310;13.582;2023-02-15T17:54:17;12.80;99.90
61004;DHT22;46889;37.310;13.582;2023-02-15T17:57:02;12.70;99.90
61004;DHT22;46889;37.310;13.582;2023-02-15T17:59:31;12.50;99.90
61004;DHT22;46889;37.310;13.582;2023-02-15T18:01:57;12.50;99.90
61004;DHT22;46889;37.310;13.582;2023-02-15T18:04:42;12.40;99.90
61004;DHT22;46889;37.310;13.582;2023-02-15T18:07:26;12.40;99.90
61004;DHT22;46889;37.310;13.582;2023-02-15T18:10:19;12.30;99.90
61004;DHT22;46889;37.310;13.582;2023-02-15T18:13:04;12.20;99.90
61004;DHT22;46889;37.310;13.582;2023-02-15T18:15:30;12.20;99.90
61004;DHT22;46889;37.310;13.582;2023-02-15T18:17:56;12.10;99.90
61004;DHT22;46889;37.310;13.582;2023-02-15T18:20:23;12.00;99.90
61004;DHT22;46889;37.310;13.582;2023-02-15T18:22:51;12.00;99.90
61004;DHT22;46889;37.310;13.582;2023-02-15T18:25:20;12.00;99.90
61004;DHT22;46889;37.310;13.582;2023-02-15T18:27:48;12.00;99.90
61004;DHT22;46889;37.310;13.582;2023-02-15T18:30:17;12.00;99.90
61004;DHT22;46889;37.310;13.582;2023-02-15T18:32:44;12.00;99.90
61004;DHT22;46889;37.310;13.582;2023-02-15T18:35:16;11.90;99.90
61004;DHT22;46889;37.310;13.582;2023-02-15T18:37:44;11.80;99.90
61004;DHT22;46889;37.310;13.582;2023-02-15T18:40:20;11.80;99.90
61004;DHT22;46889;37.310;13.582;2023-02-15T18:42:46;11.80;99.90
61004;DHT22;46889;37.310;13.582;2023-02-15T18:47:40;11.70;99.90
61004;DHT22;46889;37.310;13.582;2023-02-15T18:50:06;11.50;99.90
61004;DHT22;46889;37.310;13.582;2023-02-15T18:52:36;11.50;99.90
61004;DHT22;46889;37.310;13.582;2023-02-15T18:57:54;11.50;99.90
61004;DHT22;46889;37.310;13.582;2023-02-15T19:00:31;11.40;99.90
61004;DHT22;46889;37.310;13.582;2023-02-15T19:02:59;11.40;99.90
61004;DHT22;46889;37.310;13.582;2023-02-15T19:05:28;11.40;99.90
61004;DHT22;46889;37.310;13.582;2023-02-15T19:07:55;11.40;99.90